Time;durP1;ratioP1;P1;durP2;ratioP2;P2;SDS_P1;SDS_P2;PMS_P1;PMS_P2;Temp;Humidity;BMP_temperature;BMP_pressure;BME280_temperature;BME280_humidity;BME280_pressure;Samples;Min_cycle;Max_cycle;Signal;HPM_P1;HPM_P2
2023/04/13 00:00:34;;;;;;;57.50;54.38;;;5.90;99.90;;;;;;5069721;28;20043;-72
2023/04/13 00:03:00;;;;;;;45.10;42.55;;;5.90;99.90;;;;;;5083925;28;20441;-72
2023/04/13 00:05:27;;;;;;;44.85;42.42;;;5.90;99.90;;;;;;5084637;28;20071;-72
2023/04/13 00:07:53;;;;;;;58.83;55.78;;;5.90;99.90;;;;;;5085668;28;20495;-72
2023/04/13 00:10:20;;;;;;;44.65;42.15;;;6.00;99.90;;;;;;5085277;28;20521;-72
2023/04/13 00:12:46;;;;;;;62.60;58.75;;;6.10;99.90;;;;;;5086299;28;20054;-72
2023/04/13 00:15:18;;;;;;;42.88;40.65;;;6.10;99.90;;;;;;5069213;28;20043;-71
2023/04/13 00:17:46;;;;;;;42.83;40.33;;;6.30;99.90;;;;;;5066727;28;20073;-72
2023/04/13 00:20:12;;;;;;;56.67;53.70;;;6.30;99.90;;;;;;5066669;28;20487;-72
2023/04/13 00:22:42;;;;;;;46.88;44.25;;;6.40;99.90;;;;;;5086753;28;20710;-72
2023/04/13 00:25:09;;;;;;;43.90;41.45;;;6.40;99.90;;;;;;5083726;28;20517;-71
2023/04/13 00:27:36;;;;;;;59.60;56.42;;;6.40;99.90;;;;;;5066455;28;20123;-72
2023/04/13 00:30:02;;;;;;;51.50;48.85;;;6.40;99.90;;;;;;5084854;28;20056;-71
2023/04/13 00:32:28;;;;;;;105.47;97.50;;;6.40;99.90;;;;;;5080914;28;20074;-72
2023/04/13 00:34:53;;;;;;;50.63;48.03;;;6.50;99.90;;;;;;5064064;28;20035;-71
2023/04/13 00:37:20;;;;;;;44.08;41.80;;;6.50;99.90;;;;;;5068806;28;21016;-72
2023/04/13 00:39:46;;;;;;;49.20;46.80;;;6.50;99.90;;;;;;5086213;28;20043;-72
2023/04/13 00:42:12;;;;;;;49.10;46.60;;;6.60;99.90;;;;;;5066482;28;20518;-71
2023/04/13 00:44:38;;;;;;;52.38;49.47;;;6.60;99.90;;;;;;5085283;28;20122;-71
2023/04/13 00:47:06;;;;;;;73.78;69.65;;;6.70;99.90;;;;;;5086342;28;20036;-72
2023/04/13 00:49:35;;;;;;;110.15;103.20;;;6.70;99.90;;;;;;5081461;28;20629;-72
2023/04/13 00:52:04;;;;;;;96.15;91.13;;;6.60;99.90;;;;;;5083604;28;20442;-72
2023/04/13 00:54:31;;;;;;;93.32;89.18;;;6.50;99.90;;;;;;5067215;28;20043;-72
2023/04/13 00:56:58;;;;;;;101.63;97.25;;;6.50;99.90;;;;;;5086657;28;20085;-72
2023/04/13 00:59:29;;;;;;;114.25;108.80;;;6.50;99.90;;;;;;5065810;28;20047;-72
2023/04/13 01:02:00;;;;;;;109.78;105.07;;;6.40;99.90;;;;;;5082438;28;20139;-72
2023/04/13 01:04:29;;;;;;;111.13;106.43;;;6.40;99.90;;;;;;5085269;28;20438;-72
2023/04/13 01:06:59;;;;;;;105.82;101.43;;;6.40;99.90;;;;;;5067950;28;20032;-72
2023/04/13 01:09:34;;;;;;;106.93;102.30;;;6.30;99.90;;;;;;5063287;28;20040;-72
2023/04/13 01:12:17;;;;;;;113.15;108.35;;;6.30;99.90;;;;;;5082573;28;20365;-72
2023/04/13 01:14:59;;;;;;;92.45;88.03;;;6.20;99.90;;;;;;5069687;28;20047;-72
2023/04/13 01:17:28;;;;;;;142.60;135.70;;;6.20;99.90;;;;;;5068032;28;20077;-72
2023/04/13 01:19:58;;;;;;;212.00;199.73;;;6.10;99.90;;;;;;5066138;28;20047;-72
2023/04/13 01:22:35;;;;;;;140.75;133.40;;;6.10;99.90;;;;;;5084381;28;20048;-72
2023/04/13 01:25:29;;;;;;;148.38;140.23;;;6.00;99.90;;;;;;5084969;28;20040;-72
2023/04/13 01:28:10;;;;;;;98.20;93.72;;;5.90;99.90;;;;;;5067844;28;20042;-72
2023/04/13 01:30:37;;;;;;;130.23;124.05;;;5.90;99.90;;;;;;5070436;28;20088;-72
2023/04/13 01:33:04;;;;;;;90.90;86.82;;;5.90;99.90;;;;;;5070766;28;20040;-73
2023/04/13 01:35:30;;;;;;;132.23;126.60;;;5.90;99.90;;;;;;5086377;28;20040;-72
2023/04/13 01:37:57;;;;;;;151.82;144.85;;;5.90;99.90;;;;;;5070995;28;20372;-72
2023/04/13 01:40:25;;;;;;;121.95;116.32;;;5.90;99.90;;;;;;5074956;28;20096;-73
2023/04/13 01:42:51;;;;;;;177.55;168.65;;;5.90;99.90;;;;;;5070300;28;20310;-72
2023/04/13 01:45:26;;;;;;;94.15;89.97;;;5.90;99.90;;;;;;5088185;28;20039;-72
2023/04/13 01:48:01;;;;;;;107.97;103.28;;;5.90;99.90;;;;;;5072485;28;20387;-72
2023/04/13 01:50:36;;;;;;;115.00;109.90;;;5.90;99.90;;;;;;5084332;28;20039;-72
2023/04/13 01:53:10;;;;;;;101.88;97.40;;;6.00;99.90;;;;;;5070626;28;20104;-73
2023/04/13 01:55:38;;;;;;;157.05;149.73;;;6.00;99.90;;;;;;5084593;28;20049;-72
2023/04/13 01:58:05;;;;;;;97.63;93.38;;;6.00;99.90;;;;;;5085767;28;20505;-72
2023/04/13 02:00:35;;;;;;;105.40;100.80;;;6.00;99.90;;;;;;5089144;28;20443;-73
2023/04/13 02:03:06;;;;;;;204.07;191.05;;;6.00;99.90;;;;;;5088453;28;20123;-72
2023/04/13 02:05:36;;;;;;;134.38;128.07;;;6.00;99.90;;;;;;5086170;28;20293;-73
2023/04/13 02:08:04;;;;;;;109.47;104.72;;;6.10;99.90;;;;;;5069641;28;20040;-73
2023/04/13 02:10:30;;;;;;;136.27;129.93;;;6.00;99.90;;;;;;5072559;28;20836;-73
2023/04/13 02:12:56;;;;;;;158.55;149.50;;;6.00;99.90;;;;;;5083602;28;20043;-72
2023/04/13 02:15:22;;;;;;;135.88;129.88;;;6.00;99.90;;;;;;5074249;28;20043;-72
2023/04/13 02:17:47;;;;;;;172.75;162.50;;;6.00;99.90;;;;;;5088548;28;20513;-73
2023/04/13 02:20:13;;;;;;;113.38;108.07;;;6.00;99.90;;;;;;5091722;28;20046;-73
2023/04/13 02:22:40;;;;;;;137.95;131.57;;;6.00;99.90;;;;;;5089668;28;20047;-72
2023/04/13 02:25:07;;;;;;;132.90;127.28;;;6.00;99.90;;;;;;5087990;28;20067;-73
2023/04/13 02:27:34;;;;;;;105.72;100.95;;;6.00;99.90;;;;;;5092228;28;20040;-73
2023/04/13 02:30:00;;;;;;;116.45;111.32;;;6.00;99.90;;;;;;5090958;28;20079;-73
2023/04/13 02:32:28;;;;;;;119.70;114.47;;;6.00;99.90;;;;;;5088725;28;20047;-73
2023/04/13 02:34:54;;;;;;;135.02;129.00;;;6.00;99.90;;;;;;5089689;28;20036;-73
2023/04/13 02:37:19;;;;;;;105.20;100.60;;;6.00;99.90;;;;;;5073216;28;20111;-73
2023/04/13 02:39:45;;;;;;;110.95;106.13;;;6.00;99.90;;;;;;5087757;28;20044;-73
2023/04/13 02:42:11;;;;;;;163.15;155.80;;;6.00;99.90;;;;;;5089163;28;20435;-72
2023/04/13 02:44:37;;;;;;;128.40;122.80;;;6.00;99.90;;;;;;5073732;28;20121;-73
2023/04/13 02:47:03;;;;;;;117.45;112.18;;;6.00;99.90;;;;;;5092849;27;20042;-73
2023/04/13 02:49:29;;;;;;;133.32;127.03;;;6.00;99.90;;;;;;5089783;28;20078;-72
2023/04/13 02:51:55;;;;;;;139.10;132.70;;;6.00;99.90;;;;;;5073007;28;20067;-73
2023/04/13 02:54:20;;;;;;;201.43;190.82;;;6.00;99.90;;;;;;5073819;28;20091;-73
2023/04/13 02:56:46;;;;;;;120.47;115.47;;;6.10;99.90;;;;;;5071548;28;20093;-73
2023/04/13 02:59:12;;;;;;;186.48;176.75;;;6.10;99.90;;;;;;5090824;28;20058;-72
2023/04/13 03:01:38;;;;;;;109.78;105.20;;;6.10;99.90;;;;;;5091158;28;20031;-73
2023/04/13 03:04:04;;;;;;;114.68;109.95;;;6.10;99.90;;;;;;5105231;28;20044;-73
2023/04/13 03:06:30;;;;;;;121.05;115.97;;;6.10;99.90;;;;;;5107719;28;20047;-73
2023/04/13 03:08:56;;;;;;;115.65;110.85;;;6.10;99.90;;;;;;5073822;28;20055;-73
2023/04/13 03:11:25;;;;;;;173.43;165.95;;;6.10;99.90;;;;;;5090901;28;20039;-73
2023/04/13 03:13:52;;;;;;;110.18;105.38;;;6.10;99.90;;;;;;5089216;28;20052;-73
2023/04/13 03:16:19;;;;;;;101.85;97.60;;;6.10;99.90;;;;;;5091059;28;20035;-73
2023/04/13 03:18:44;;;;;;;132.13;126.40;;;6.10;99.90;;;;;;5073706;28;20126;-73
2023/04/13 03:21:11;;;;;;;108.82;104.25;;;6.10;99.90;;;;;;5088917;28;20196;-73
2023/04/13 03:23:37;;;;;;;110.32;105.47;;;6.10;99.90;;;;;;5073257;28;20032;-73
2023/04/13 03:26:03;;;;;;;128.50;122.97;;;6.10;99.90;;;;;;5072325;28;20113;-73
2023/04/13 03:28:28;;;;;;;125.88;120.55;;;6.10;99.90;;;;;;5062836;28;20097;-73
2023/04/13 03:30:55;;;;;;;120.38;115.18;;;6.10;99.90;;;;;;5071955;28;20123;-72
2023/04/13 03:33:20;;;;;;;148.55;141.20;;;6.10;99.90;;;;;;5090184;28;20032;-72
2023/04/13 03:35:46;;;;;;;97.93;93.82;;;6.10;99.90;;;;;;5089263;28;20061;-73
2023/04/13 03:38:12;;;;;;;107.10;102.45;;;6.10;99.90;;;;;;5089190;28;20039;-73
2023/04/13 03:40:37;;;;;;;104.43;100.05;;;6.20;99.90;;;;;;5088500;28;20644;-73
2023/04/13 03:43:03;;;;;;;109.18;104.47;;;6.20;99.90;;;;;;5088038;28;20554;-73
2023/04/13 03:45:29;;;;;;;188.27;179.30;;;6.20;99.90;;;;;;5088426;28;20088;-73
2023/04/13 03:47:54;;;;;;;98.90;94.72;;;6.20;99.90;;;;;;5090125;28;20039;-73
2023/04/13 03:50:20;;;;;;;113.45;108.50;;;6.20;99.90;;;;;;5069570;28;20036;-74
2023/04/13 03:52:46;;;;;;;84.07;80.45;;;6.20;99.90;;;;;;5089819;28;20047;-73
2023/04/13 03:55:12;;;;;;;95.78;91.78;;;6.20;99.90;;;;;;5089843;28;20073;-73
2023/04/13 03:57:38;;;;;;;87.10;83.43;;;6.20;99.90;;;;;;5086297;28;20047;-73
2023/04/13 04:00:06;;;;;;;87.93;84.18;;;6.20;99.90;;;;;;5073278;28;20042;-73
2023/04/13 04:02:31;;;;;;;96.55;92.45;;;6.20;99.90;;;;;;5086799;27;20054;-73
2023/04/13 04:04:58;;;;;;;89.43;85.47;;;6.20;99.90;;;;;;5072191;28;20406;-75
2023/04/13 04:07:24;;;;;;;94.22;90.20;;;6.20;99.90;;;;;;5103965;28;20058;-72
2023/04/13 04:09:50;;;;;;;105.68;101.15;;;6.10;99.90;;;;;;5089115;28;20035;-72
2023/04/13 04:12:15;;;;;;;87.82;84.18;;;6.10;99.90;;;;;;5071010;28;20469;-72
2023/04/13 04:14:41;;;;;;;88.65;84.78;;;6.10;99.90;;;;;;5071956;28;20101;-72
2023/04/13 04:17:07;;;;;;;95.53;91.53;;;6.10;99.90;;;;;;5085368;28;20031;-72
2023/04/13 04:19:32;;;;;;;90.93;87.13;;;6.20;99.90;;;;;;5087564;27;20454;-72
2023/04/13 04:22:02;;;;;;;85.43;81.72;;;6.10;99.90;;;;;;5088378;28;20043;-72
2023/04/13 04:24:28;;;;;;;93.65;89.57;;;6.10;99.90;;;;;;5086848;28;20046;-72
2023/04/13 04:26:54;;;;;;;72.93;69.78;;;6.00;99.90;;;;;;5088182;28;20085;-73
2023/04/13 04:29:35;;;;;;;75.20;71.85;;;6.00;99.90;;;;;;5091012;28;20044;-73
2023/04/13 04:32:02;;;;;;;74.75;71.50;;;5.90;99.90;;;;;;5070610;28;20065;-72
2023/04/13 04:34:28;;;;;;;72.00;68.60;;;5.80;99.90;;;;;;5087896;28;20497;-75
2023/04/13 04:36:54;;;;;;;75.18;71.90;;;5.70;99.90;;;;;;5071880;28;20039;-73
2023/04/13 04:39:25;;;;;;;73.20;69.85;;;5.70;99.90;;;;;;5071502;28;20036;-72
2023/04/13 04:42:01;;;;;;;83.47;79.82;;;5.60;99.90;;;;;;5070759;28;20063;-73
2023/04/13 04:44:29;;;;;;;75.70;72.43;;;5.60;99.90;;;;;;5085832;28;20043;-72
2023/04/13 04:46:57;;;;;;;90.28;86.40;;;5.50;99.90;;;;;;5072470;27;20047;-73
2023/04/13 04:49:24;;;;;;;94.55;90.45;;;5.50;99.90;;;;;;5071301;28;20039;-73
2023/04/13 04:51:50;;;;;;;107.15;102.65;;;5.50;99.90;;;;;;5088781;28;20039;-73
2023/04/13 04:54:17;;;;;;;110.05;105.45;;;5.50;99.90;;;;;;5085121;28;20078;-73
2023/04/13 04:56:44;;;;;;;119.88;114.85;;;5.60;99.90;;;;;;5069547;28;20039;-72
2023/04/13 04:59:10;;;;;;;121.57;116.38;;;5.70;99.90;;;;;;5083309;28;20053;-73
2023/04/13 05:01:35;;;;;;;115.63;110.70;;;5.70;99.90;;;;;;5085694;28;20143;-75
2023/04/13 05:04:01;;;;;;;140.70;134.40;;;5.80;99.90;;;;;;5086010;28;20124;-73
2023/04/13 05:06:31;;;;;;;118.72;113.43;;;5.80;99.90;;;;;;5087514;28;20042;-72
2023/04/13 05:08:57;;;;;;;112.88;107.85;;;5.90;99.90;;;;;;5086036;28;20036;-72
2023/04/13 05:11:23;;;;;;;119.22;113.93;;;5.90;99.90;;;;;;5087283;28;20092;-72
2023/04/13 05:13:48;;;;;;;109.53;104.43;;;5.90;99.90;;;;;;5069900;28;20486;-72
2023/04/13 05:16:14;;;;;;;120.38;115.25;;;5.90;99.90;;;;;;5086513;28;20035;-73
2023/04/13 05:18:44;;;;;;;108.35;103.63;;;6.10;99.90;;;;;;5088131;28;20048;-73
2023/04/13 05:21:11;;;;;;;99.18;94.78;;;6.10;99.90;;;;;;5072648;28;20039;-72
2023/04/13 05:23:37;;;;;;;96.28;92.03;;;6.20;99.90;;;;;;5086353;28;20398;-72
2023/04/13 05:26:03;;;;;;;90.40;86.40;;;6.20;99.90;;;;;;5071801;28;20032;-72
2023/04/13 05:28:29;;;;;;;88.40;84.20;;;6.20;99.90;;;;;;5060037;28;20064;-72
2023/04/13 05:31:00;;;;;;;106.38;101.57;;;6.10;99.90;;;;;;5070781;28;20044;-73
2023/04/13 05:33:26;;;;;;;95.45;90.97;;;6.00;99.90;;;;;;5085806;28;20093;-73
2023/04/13 05:35:51;;;;;;;95.63;91.32;;;6.10;99.90;;;;;;5090233;28;20044;-72
2023/04/13 05:38:17;;;;;;;96.47;92.05;;;6.10;99.90;;;;;;5087518;28;20044;-73
2023/04/13 05:40:43;;;;;;;105.05;100.15;;;6.10;99.90;;;;;;5070095;28;20054;-73
2023/04/13 05:43:11;;;;;;;100.93;96.15;;;6.10;99.90;;;;;;5089602;28;20582;-73
2023/04/13 05:45:37;;;;;;;113.65;108.55;;;6.20;99.90;;;;;;5088415;28;20048;-73
2023/04/13 05:48:03;;;;;;;101.65;96.95;;;6.20;99.90;;;;;;5086907;28;20084;-73
2023/04/13 05:50:29;;;;;;;108.80;103.97;;;6.30;99.90;;;;;;5091130;28;20411;-72
2023/04/13 05:52:56;;;;;;;129.02;123.32;;;6.40;99.90;;;;;;5093515;28;20036;-72
2023/04/13 05:55:22;;;;;;;117.53;112.57;;;6.60;99.90;;;;;;5124895;27;20046;-72
2023/04/13 05:57:48;;;;;;;100.68;96.05;;;6.70;99.90;;;;;;5107559;28;20031;-73
2023/04/13 06:00:17;;;;;;;105.60;100.90;;;6.80;99.90;;;;;;5091849;28;20085;-72
2023/04/13 06:02:43;;;;;;;111.30;106.38;;;7.00;99.90;;;;;;5109447;27;20035;-72
2023/04/13 06:05:13;;;;;;;88.45;84.47;;;7.00;99.90;;;;;;5089282;28;20118;-73
2023/04/13 06:07:39;;;;;;;127.00;120.45;;;7.10;99.90;;;;;;5088816;27;20507;-73
2023/04/13 06:10:05;;;;;;;84.60;80.70;;;7.00;99.90;;;;;;5091380;28;20038;-72
2023/04/13 06:12:31;;;;;;;78.10;74.45;;;7.00;99.90;;;;;;5106750;28;20601;-73
2023/04/13 06:14:56;;;;;;;76.93;73.05;;;6.90;99.90;;;;;;5074916;28;20547;-72
2023/04/13 06:17:23;;;;;;;95.15;90.45;;;6.80;99.90;;;;;;5093806;28;20050;-72
2023/04/13 06:19:48;;;;;;;77.93;73.97;;;6.80;99.90;;;;;;5091728;27;20047;-72
2023/04/13 06:22:14;;;;;;;102.88;98.05;;;6.80;99.90;;;;;;5076111;27;20049;-72
2023/04/13 06:24:39;;;;;;;86.22;82.32;;;6.80;99.90;;;;;;5109160;28;20031;-73
2023/04/13 06:27:05;;;;;;;84.55;80.90;;;6.80;99.90;;;;;;5091066;28;20401;-73
2023/04/13 06:29:31;;;;;;;86.88;82.95;;;6.90;99.90;;;;;;5091794;28;20116;-73
2023/04/13 06:31:57;;;;;;;91.80;87.38;;;6.90;99.90;;;;;;5104596;28;20457;-73
2023/04/13 06:34:22;;;;;;;94.68;90.53;;;6.90;99.90;;;;;;5089440;28;20126;-72
2023/04/13 06:36:48;;;;;;;95.30;91.03;;;6.90;99.90;;;;;;5090220;28;20055;-72
2023/04/13 06:39:14;;;;;;;99.53;95.15;;;6.90;99.90;;;;;;5087733;28;20119;-73
2023/04/13 06:41:40;;;;;;;103.07;98.43;;;6.90;99.90;;;;;;5091730;27;20452;-75
2023/04/13 06:44:05;;;;;;;113.35;108.40;;;6.90;99.90;;;;;;5094422;27;20043;-72
2023/04/13 06:46:31;;;;;;;149.18;142.57;;;7.00;99.90;;;;;;5068703;28;20824;-73
2023/04/13 06:48:57;;;;;;;105.85;100.82;;;7.00;99.90;;;;;;5090386;28;20043;-73
2023/04/13 06:51:22;;;;;;;117.25;112.18;;;7.10;99.90;;;;;;5088449;28;20101;-72
2023/04/13 06:53:50;;;;;;;110.47;105.57;;;7.00;99.90;;;;;;5089881;28;20047;-72
2023/04/13 06:56:15;;;;;;;136.73;129.77;;;7.10;99.90;;;;;;5090877;28;20118;-72
2023/04/13 06:58:41;;;;;;;125.40;120.05;;;7.10;99.90;;;;;;5106206;28;20575;-73
2023/04/13 07:01:07;;;;;;;127.07;121.43;;;7.10;99.90;;;;;;5086371;28;20073;-72
2023/04/13 07:03:32;;;;;;;139.95;133.52;;;7.10;99.90;;;;;;5108066;28;20036;-73
2023/04/13 07:05:58;;;;;;;125.72;120.13;;;7.10;99.90;;;;;;5106621;28;20490;-73
2023/04/13 07:08:24;;;;;;;105.63;100.70;;;7.20;99.90;;;;;;5073140;28;20035;-72
2023/04/13 07:10:54;;;;;;;119.88;114.55;;;7.40;99.90;;;;;;5085176;28;20043;-73
2023/04/13 07:13:20;;;;;;;144.68;138.45;;;7.60;99.90;;;;;;5105467;28;20036;-73
2023/04/13 07:15:46;;;;;;;152.95;146.50;;;7.70;99.90;;;;;;5107443;27;20047;-72
2023/04/13 07:18:11;;;;;;;204.32;195.15;;;7.80;99.90;;;;;;5088563;28;20043;-73
2023/04/13 07:20:38;;;;;;;158.40;151.85;;;8.10;99.90;;;;;;5089484;28;20048;-73
2023/04/13 07:23:05;;;;;;;127.30;121.78;;;8.30;99.90;;;;;;5073378;28;20395;-73
2023/04/13 07:25:33;;;;;;;175.57;167.95;;;8.30;99.90;;;;;;5072380;28;20120;-73
2023/04/13 07:27:59;;;;;;;161.00;153.90;;;8.30;99.90;;;;;;5089084;28;20394;-73
2023/04/13 07:30:25;;;;;;;136.48;130.70;;;8.30;99.90;;;;;;5071369;28;20036;-73
2023/04/13 07:32:51;;;;;;;144.38;138.27;;;8.40;99.90;;;;;;5088760;28;20040;-73
2023/04/13 07:35:17;;;;;;;132.30;126.53;;;8.40;99.90;;;;;;5121913;27;20055;-73
2023/04/13 07:37:43;;;;;;;144.02;137.90;;;8.40;99.90;;;;;;5106579;28;20111;-73
2023/04/13 07:40:10;;;;;;;170.32;162.10;;;8.40;99.90;;;;;;5089763;28;20059;-73
2023/04/13 07:42:36;;;;;;;151.93;145.23;;;8.40;99.90;;;;;;5065125;28;20043;-73
2023/04/13 07:45:02;;;;;;;129.82;124.40;;;8.40;99.90;;;;;;5106549;27;20039;-73
2023/04/13 07:47:27;;;;;;;148.10;141.07;;;8.40;99.90;;;;;;5085497;28;20500;-73
2023/04/13 07:49:53;;;;;;;110.50;105.50;;;8.50;99.90;;;;;;5098557;27;20051;-73
2023/04/13 07:52:19;;;;;;;102.25;97.85;;;8.50;99.90;;;;;;5084272;28;20162;-73
2023/04/13 07:54:45;;;;;;;118.82;113.63;;;8.50;99.90;;;;;;5086383;28;20046;-73
2023/04/13 07:57:10;;;;;;;126.10;120.75;;;8.40;99.90;;;;;;5064567;28;20044;-73
2023/04/13 07:59:36;;;;;;;123.93;118.55;;;8.50;99.90;;;;;;5093045;28;20042;-73
2023/04/13 08:02:01;;;;;;;103.95;99.55;;;8.70;99.90;;;;;;5087801;28;20031;-73
2023/04/13 08:04:27;;;;;;;108.75;103.97;;;8.80;99.90;;;;;;5069428;28;20084;-73
2023/04/13 08:06:52;;;;;;;110.68;105.95;;;8.80;99.90;;;;;;5072834;27;20055;-73
2023/04/13 08:09:18;;;;;;;106.45;101.93;;;8.80;99.90;;;;;;5088678;28;20444;-73
2023/04/13 08:11:44;;;;;;;100.38;95.95;;;8.90;99.90;;;;;;5067503;27;20567;-73
2023/04/13 08:14:10;;;;;;;111.07;105.97;;;8.90;99.90;;;;;;5088529;28;20579;-73
2023/04/13 08:16:36;;;;;;;120.75;115.15;;;8.90;99.90;;;;;;5088637;28;20044;-73
2023/04/13 08:19:02;;;;;;;110.63;105.70;;;8.80;99.90;;;;;;5085716;28;20070;-73
2023/04/13 08:21:28;;;;;;;133.75;127.18;;;8.70;99.90;;;;;;5086790;28;20077;-73
2023/04/13 08:23:55;;;;;;;110.93;106.22;;;8.50;99.90;;;;;;5084540;28;20040;-73
2023/04/13 08:26:21;;;;;;;113.85;108.95;;;8.40;99.90;;;;;;5082899;28;20039;-73
2023/04/13 08:28:47;;;;;;;134.45;128.77;;;8.40;99.90;;;;;;5070795;28;20043;-73
2023/04/13 08:31:14;;;;;;;131.32;126.03;;;8.50;99.90;;;;;;5088050;28;20043;-73
2023/04/13 08:33:40;;;;;;;144.65;137.88;;;8.70;99.90;;;;;;5071007;27;20674;-73
2023/04/13 08:36:06;;;;;;;130.55;124.93;;;8.90;99.90;;;;;;5087246;28;20039;-73
2023/04/13 08:38:35;;;;;;;119.13;113.93;;;8.90;99.90;;;;;;5086237;28;20097;-73
2023/04/13 08:41:02;;;;;;;108.45;103.80;;;8.90;99.90;;;;;;5088924;28;20043;-73
2023/04/13 08:43:29;;;;;;;122.32;117.13;;;8.80;99.90;;;;;;5071614;28;20082;-73
2023/04/13 08:45:55;;;;;;;138.88;132.95;;;8.70;99.90;;;;;;5081370;28;20089;-73
2023/04/13 08:48:22;;;;;;;136.30;130.73;;;8.60;99.90;;;;;;5069425;28;20043;-73
2023/04/13 08:50:51;;;;;;;132.80;127.22;;;8.50;99.90;;;;;;5080623;28;20055;-73
2023/04/13 08:53:17;;;;;;;144.63;138.45;;;8.50;99.90;;;;;;5085856;28;20062;-73
2023/04/13 08:55:47;;;;;;;342.02;322.08;;;8.50;99.90;;;;;;5078066;28;20520;-73
2023/04/13 08:58:19;;;;;;;140.95;134.98;;;8.60;99.90;;;;;;5072672;28;20036;-73
2023/04/13 09:00:48;;;;;;;151.98;145.80;;;8.60;99.90;;;;;;5063567;28;20039;-73
2023/04/13 09:03:22;;;;;;;182.20;174.13;;;8.70;99.90;;;;;;5068671;28;20040;-73
2023/04/13 09:05:53;;;;;;;201.15;192.18;;;8.70;99.90;;;;;;5099691;28;20040;-73
2023/04/13 09:08:20;;;;;;;141.80;136.13;;;8.70;99.90;;;;;;5069004;28;20041;-73
2023/04/13 09:10:46;;;;;;;158.77;152.45;;;8.80;99.90;;;;;;5070177;28;20062;-73
2023/04/13 09:13:12;;;;;;;196.50;188.63;;;8.90;99.90;;;;;;5070224;28;20043;-73
2023/04/13 09:15:37;;;;;;;204.15;196.00;;;9.10;99.90;;;;;;5068885;28;20050;-73
2023/04/13 09:18:11;;;;;;;224.98;215.90;;;9.40;99.90;;;;;;5087862;28;20083;-73
2023/04/13 09:20:37;;;;;;;134.83;129.33;;;9.60;99.90;;;;;;5071129;28;20040;-73
2023/04/13 09:23:13;;;;;;;124.70;119.20;;;9.80;99.90;;;;;;5088137;28;20039;-73
2023/04/13 09:25:39;;;;;;;148.00;141.23;;;9.80;99.90;;;;;;5075113;28;20047;-73
2023/04/13 09:28:07;;;;;;;156.93;149.77;;;9.70;99.90;;;;;;5079661;28;20780;-73
2023/04/13 09:30:33;;;;;;;151.75;144.63;;;9.50;99.90;;;;;;5072108;28;20154;-73
2023/04/13 09:33:06;;;;;;;148.95;142.77;;;9.20;99.90;;;;;;5084573;28;20119;-73
2023/04/13 09:35:32;;;;;;;146.55;140.35;;;9.00;99.90;;;;;;5075601;28;20046;-73
2023/04/13 09:38:01;;;;;;;102.47;98.40;;;9.00;99.90;;;;;;5087315;27;20043;-73
2023/04/13 09:40:27;;;;;;;107.07;102.72;;;8.80;99.90;;;;;;5090641;28;20042;-73
2023/04/13 09:43:01;;;;;;;93.45;89.72;;;8.70;99.90;;;;;;5088392;28;20048;-73
2023/04/13 09:45:44;;;;;;;102.63;98.20;;;8.60;99.90;;;;;;5091377;28;20031;-73
2023/04/13 09:48:20;;;;;;;116.60;111.32;;;8.40;99.90;;;;;;5109220;27;20035;-73
2023/04/13 09:50:57;;;;;;;111.50;107.15;;;8.20;99.90;;;;;;5079752;27;20047;-74
2023/04/13 09:53:22;;;;;;;167.48;160.18;;;8.10;99.90;;;;;;5125043;27;20050;-73
2023/04/13 09:55:59;;;;;;;134.07;128.25;;;7.90;99.90;;;;;;5075768;28;20499;-73
2023/04/13 09:58:25;;;;;;;127.47;121.85;;;7.80;99.90;;;;;;5069284;27;20082;-73
2023/04/13 10:00:52;;;;;;;129.93;124.75;;;7.80;99.90;;;;;;5071471;28;20093;-73
2023/04/13 10:03:20;;;;;;;146.45;140.73;;;7.80;99.90;;;;;;5091302;28;20054;-73
2023/04/13 10:05:46;;;;;;;160.90;154.55;;;8.10;99.90;;;;;;5106220;28;20075;-74
2023/04/13 10:08:12;;;;;;;168.48;161.93;;;8.40;99.90;;;;;;5072385;28;20035;-74
2023/04/13 10:10:41;;;;;;;219.43;210.02;;;8.70;99.90;;;;;;5078735;28;20078;-74
2023/04/13 10:13:14;;;;;;;226.88;217.90;;;9.00;99.90;;;;;;5070727;28;20133;-73
2023/04/13 10:16:18;;;;;;;316.38;299.17;;;9.30;99.90;;;;;;5086473;28;20039;-73
2023/04/13 10:19:07;;;;;;;253.77;243.85;;;9.80;99.90;;;;;;5086995;28;20130;-74
2023/04/13 10:21:38;;;;;;;235.93;226.70;;;10.10;99.90;;;;;;5119783;27;20050;-74
2023/04/13 10:24:05;;;;;;;127.47;121.68;;;10.40;99.90;;;;;;5069259;27;20031;-74
2023/04/13 10:26:31;;;;;;;105.68;101.38;;;10.60;99.90;;;;;;5079476;27;20035;-73
2023/04/13 10:28:59;;;;;;;119.30;113.78;;;10.40;99.90;;;;;;5077678;28;20042;-73
2023/04/13 10:31:42;;;;;;;135.80;130.30;;;10.20;99.90;;;;;;5087214;28;20051;-73
2023/04/13 10:34:09;;;;;;;144.60;138.23;;;10.10;99.90;;;;;;5085017;28;20399;-73
2023/04/13 10:36:43;;;;;;;110.53;105.85;;;10.40;99.90;;;;;;5100869;28;20047;-73
2023/04/13 10:39:09;;;;;;;209.57;197.80;;;10.70;99.90;;;;;;5119648;27;20393;-73
2023/04/13 10:41:36;;;;;;;82.15;78.70;;;11.00;99.90;;;;;;5067956;28;20067;-73
2023/04/13 10:44:03;;;;;;;233.00;219.27;;;11.30;99.90;;;;;;5087420;28;20035;-73
2023/04/13 10:46:29;;;;;;;81.85;78.45;;;11.50;99.90;;;;;;5085417;28;20040;-73
2023/04/13 10:48:59;;;;;;;113.15;106.28;;;11.80;99.90;;;;;;5121203;27;20364;-73
2023/04/13 10:51:41;;;;;;;63.72;60.50;;;11.90;99.90;;;;;;5082858;28;20047;-74
2023/04/13 10:54:08;;;;;;;186.23;173.70;;;11.60;99.90;;;;;;5066393;28;20094;-74
2023/04/13 10:56:34;;;;;;;97.93;93.63;;;11.20;99.90;;;;;;5080179;28;20043;-73
2023/04/13 10:59:00;;;;;;;149.98;142.57;;;10.70;99.90;;;;;;5085293;28;20039;-73
2023/04/13 11:01:26;;;;;;;156.48;149.40;;;10.20;99.90;;;;;;5071064;28;20048;-73
2023/04/13 11:03:53;;;;;;;140.07;134.07;;;9.90;99.90;;;;;;5086701;28;20491;-73
2023/04/13 11:06:18;;;;;;;110.93;106.10;;;9.70;99.90;;;;;;5089293;28;20040;-73
2023/04/13 11:08:45;;;;;;;193.15;183.73;;;9.30;99.90;;;;;;5089575;27;20050;-74
2023/04/13 11:11:11;;;;;;;128.35;123.13;;;9.20;99.90;;;;;;5083081;28;20078;-74
2023/04/13 11:13:46;;;;;;;114.45;109.40;;;9.10;99.90;;;;;;5088002;27;20418;-74
2023/04/13 11:16:12;;;;;;;120.88;115.93;;;9.10;99.90;;;;;;5097652;28;20044;-74
2023/04/13 11:18:39;;;;;;;162.95;155.52;;;9.20;99.90;;;;;;5073787;28;20411;-74
2023/04/13 11:21:15;;;;;;;232.38;222.27;;;9.20;99.90;;;;;;5085635;28;20044;-73
2023/04/13 11:23:49;;;;;;;185.05;177.20;;;9.40;99.90;;;;;;5080967;27;20047;-73
2023/04/13 11:26:16;;;;;;;142.80;136.63;;;9.60;99.90;;;;;;5073885;28;20040;-73
2023/04/13 11:28:45;;;;;;;196.00;187.85;;;9.80;99.90;;;;;;5085350;27;20063;-73
2023/04/13 11:31:11;;;;;;;121.65;116.10;;;10.00;99.90;;;;;;5084776;28;20050;-73
2023/04/13 11:33:38;;;;;;;116.82;111.10;;;10.20;99.90;;;;;;5089327;28;20099;-73
2023/04/13 11:36:04;;;;;;;122.63;117.10;;;10.20;99.90;;;;;;5072135;28;20054;-73
2023/04/13 11:38:31;;;;;;;201.60;191.77;;;10.20;99.90;;;;;;5070176;28;20035;-73
2023/04/13 11:41:01;;;;;;;172.77;164.80;;;10.30;99.90;;;;;;5090040;28;20078;-73
2023/04/13 11:43:27;;;;;;;125.07;119.22;;;10.30;99.90;;;;;;5088355;28;20080;-73
2023/04/13 11:45:54;;;;;;;137.90;131.32;;;10.40;99.90;;;;;;5063750;27;20047;-73
2023/04/13 11:48:20;;;;;;;111.40;106.07;;;10.50;99.90;;;;;;5080693;27;20031;-73
2023/04/13 11:50:47;;;;;;;105.90;100.10;;;10.70;99.90;;;;;;5088605;27;20039;-73
2023/04/13 11:53:14;;;;;;;82.03;77.57;;;10.90;99.90;;;;;;5088783;27;20127;-73
2023/04/13 11:55:40;;;;;;;92.55;88.15;;;10.90;99.90;;;;;;5087087;28;20083;-73
2023/04/13 11:58:17;;;;;;;96.97;92.18;;;11.00;99.90;;;;;;5080750;28;20122;-73
2023/04/13 12:00:43;;;;;;;94.05;89.30;;;11.00;99.90;;;;;;5079674;28;20482;-73
2023/04/13 12:03:18;;;;;;;105.78;100.10;;;11.00;99.90;;;;;;5064943;28;20048;-73
2023/04/13 12:05:44;;;;;;;81.10;77.07;;;10.90;99.90;;;;;;5071947;28;20043;-74
2023/04/13 12:08:22;;;;;;;116.22;110.00;;;10.80;99.90;;;;;;5088419;28;20043;-74
2023/04/13 12:11:02;;;;;;;94.60;89.32;;;10.60;99.90;;;;;;5070373;28;20084;-73
2023/04/13 12:13:38;;;;;;;90.55;86.15;;;10.50;99.90;;;;;;5084236;27;20195;-73
2023/04/13 12:16:04;;;;;;;69.93;66.18;;;10.50;99.90;;;;;;5080461;27;20040;-73
2023/04/13 12:18:30;;;;;;;101.43;96.35;;;10.50;99.90;;;;;;5073095;28;20101;-73
2023/04/13 12:20:59;;;;;;;82.40;78.47;;;10.50;99.90;;;;;;5065063;28;20123;-73
2023/04/13 12:23:26;;;;;;;85.78;81.43;;;10.50;99.90;;;;;;5087569;27;20040;-73
2023/04/13 12:25:58;;;;;;;193.90;181.93;;;10.40;99.90;;;;;;5086332;28;20035;-74